createdAt,value
2022-11-15T00:02:42.798Z,99.87
2022-11-15T00:05:30.265Z,99.88
2022-11-15T00:08:17.682Z,100.00
2022-11-15T00:11:05.508Z,99.68
2022-11-15T00:13:52.694Z,99.97
2022-11-15T00:16:40.334Z,99.83
2022-11-15T00:19:27.465Z,99.84
2022-11-15T00:22:14.721Z,99.75
2022-11-15T00:25:01.975Z,99.86
2022-11-15T00:27:51.996Z,100.00
2022-11-15T00:30:39.409Z,100.00
2022-11-15T00:33:26.206Z,100.00
2022-11-15T00:36:13.477Z,99.71
2022-11-15T00:39:00.285Z,100.00
2022-11-15T00:41:47.291Z,100.00
2022-11-15T00:44:34.523Z,99.83
2022-11-15T00:47:24.200Z,99.72
2022-11-15T00:50:15.010Z,99.64
2022-11-15T00:53:02.636Z,100.00
2022-11-15T00:55:49.826Z,99.92
2022-11-15T00:58:37.386Z,99.76
2022-11-15T01:01:24.711Z,99.83
2022-11-15T01:04:11.875Z,99.87
2022-11-15T01:06:58.885Z,99.97
2022-11-15T01:09:46.256Z,99.73
2022-11-15T01:12:33.855Z,99.92
2022-11-15T01:15:21.190Z,99.60
2022-11-15T01:18:08.222Z,99.39
2022-11-15T01:20:55.454Z,99.93
2022-11-15T01:23:42.601Z,99.90
2022-11-15T01:26:29.985Z,99.52
2022-11-15T01:29:17.471Z,100.00
2022-11-15T01:32:04.517Z,99.64
2022-11-15T01:34:51.895Z,99.61
2022-11-15T01:37:39.119Z,100.00
2022-11-15T01:40:26.419Z,99.45
2022-11-15T01:43:45.515Z,99.67
2022-11-15T01:46:37.763Z,99.78
2022-11-15T01:49:28.511Z,99.41
2022-11-15T01:52:19.665Z,99.31
2022-11-15T01:55:15.657Z,99.46
2022-11-15T01:58:06.487Z,99.51
2022-11-15T02:00:54.198Z,99.59
2022-11-15T02:03:59.216Z,99.56
2022-11-15T02:06:48.307Z,99.96
2022-11-15T02:09:35.208Z,99.83
2022-11-15T02:12:23.777Z,100.00
2022-11-15T02:15:12.502Z,99.49
2022-11-15T02:18:09.658Z,99.50
2022-11-15T02:21:40.938Z,99.69
2022-11-15T02:24:45.545Z,99.33
2022-11-15T02:28:09.388Z,99.67
2022-11-15T02:31:00.332Z,99.82
2022-11-15T02:34:28.721Z,99.48
2022-11-15T02:37:20.155Z,99.77
2022-11-15T02:40:25.594Z,99.51
2022-11-15T02:43:35.635Z,99.59
2022-11-15T02:47:05.016Z,99.66
2022-11-15T02:49:59.097Z,99.64
2022-11-15T02:52:49.746Z,99.28
2022-11-15T02:55:43.752Z,99.43
2022-11-15T02:58:42.168Z,99.71
2022-11-15T03:02:04.460Z,99.32
2022-11-15T03:05:20.716Z,99.73
2022-11-15T03:08:07.333Z,99.83
2022-11-15T03:11:11.464Z,99.08
2022-11-15T03:14:12.547Z,99.49
2022-11-15T03:17:02.114Z,99.52
2022-11-15T03:19:54.837Z,99.28
2022-11-15T03:22:46.552Z,99.50
2022-11-15T03:25:36.427Z,99.36
2022-11-15T03:28:30.243Z,99.45
2022-11-15T03:31:39.138Z,99.32
2022-11-15T03:34:28.749Z,99.54
2022-11-15T03:37:18.408Z,99.45
2022-11-15T03:40:06.390Z,99.56
2022-11-15T03:43:12.366Z,99.12
2022-11-15T03:46:08.938Z,99.33
2022-11-15T03:49:10.076Z,99.53
2022-11-15T03:52:00.674Z,99.33
2022-11-15T03:54:57.624Z,99.30
2022-11-15T03:57:45.702Z,99.28
2022-11-15T04:00:32.536Z,99.35
2022-11-15T04:03:19.518Z,98.77
2022-11-15T04:06:07.017Z,99.32
2022-11-15T04:08:53.897Z,99.22
2022-11-15T04:11:40.515Z,99.05
2022-11-15T04:14:27.655Z,99.32
2022-11-15T04:17:14.584Z,99.25
2022-11-15T04:20:19.900Z,99.20
2022-11-15T04:23:29.579Z,98.83
2022-11-15T04:26:22.942Z,99.33
2022-11-15T04:29:28.538Z,99.26
2022-11-15T04:32:15.650Z,99.09
2022-11-15T04:35:02.344Z,99.17
2022-11-15T04:37:49.683Z,99.04
2022-11-15T04:40:38.453Z,99.17
2022-11-15T04:43:28.094Z,99.27
2022-11-15T04:46:15.195Z,99.32
2022-11-15T04:49:02.691Z,98.91
2022-11-15T04:51:49.853Z,99.07
2022-11-15T04:54:36.730Z,99.27
2022-11-15T04:57:23.847Z,99.12
2022-11-15T05:00:18.700Z,99.16
2022-11-15T05:03:23.778Z,99.03
2022-11-15T05:06:10.647Z,98.78
2022-11-15T05:08:57.781Z,98.76
2022-11-15T05:11:48.632Z,99.08
2022-11-15T05:14:35.607Z,98.65
2022-11-15T05:17:22.737Z,98.37
2022-11-15T05:20:11.000Z,98.66
2022-11-15T05:22:58.146Z,98.33
2022-11-15T05:25:45.517Z,98.18
2022-11-15T05:28:33.438Z,98.09
2022-11-15T05:31:20.251Z,98.19
2022-11-15T05:34:07.833Z,97.99
2022-11-15T05:36:55.387Z,98.00
2022-11-15T05:39:42.397Z,98.15
2022-11-15T05:42:29.908Z,97.91
2022-11-15T05:45:19.324Z,97.99
2022-11-15T05:48:11.420Z,97.36
2022-11-15T05:50:59.333Z,97.53
2022-11-15T05:53:47.363Z,97.37
2022-11-15T05:56:34.427Z,97.54
2022-11-15T05:59:22.037Z,97.26
2022-11-15T06:02:09.380Z,97.42
2022-11-15T06:04:56.195Z,97.44
2022-11-15T06:07:45.956Z,97.30
2022-11-15T06:10:33.227Z,97.38
2022-11-15T06:13:20.106Z,97.51
2022-11-15T06:16:07.559Z,97.56
2022-11-15T06:18:54.917Z,97.38
2022-11-15T06:21:41.937Z,97.22
2022-11-15T06:24:28.769Z,96.69
2022-11-15T06:27:15.748Z,96.96
2022-11-15T06:30:03.187Z,96.86
2022-11-15T06:32:53.105Z,96.83
2022-11-15T06:35:40.001Z,96.85
2022-11-15T06:38:29.857Z,96.26
2022-11-15T06:41:18.756Z,96.72
2022-11-15T06:44:05.780Z,96.82
2022-11-15T06:46:52.640Z,96.81
2022-11-15T06:49:39.976Z,96.50
2022-11-15T06:52:26.796Z,96.68
2022-11-15T06:55:13.853Z,96.87
2022-11-15T06:58:00.636Z,96.25
2022-11-15T07:00:50.520Z,96.34
2022-11-15T07:03:39.814Z,96.70
2022-11-15T07:06:26.695Z,96.43
2022-11-15T07:09:13.899Z,96.72
2022-11-15T07:12:07.334Z,96.52
2022-11-15T07:14:55.167Z,96.39
2022-11-15T07:17:42.043Z,96.46
2022-11-15T07:20:29.088Z,96.61
2022-11-15T07:23:15.730Z,96.40
2022-11-15T07:26:05.384Z,96.11
2022-11-15T07:28:52.331Z,96.52
2022-11-15T07:31:39.756Z,96.35
2022-11-15T07:34:26.996Z,96.51
2022-11-15T07:37:14.870Z,96.49
2022-11-15T07:40:01.405Z,96.49
2022-11-15T07:42:54.431Z,96.54
2022-11-15T07:45:45.903Z,96.64
2022-11-15T07:48:43.412Z,97.06
2022-11-15T07:51:31.998Z,96.21
2022-11-15T07:54:18.797Z,96.62
2022-11-15T07:57:07.704Z,96.61
2022-11-15T07:59:55.197Z,96.36
2022-11-15T08:02:43.927Z,96.44
2022-11-15T08:05:31.245Z,96.85
2022-11-15T08:08:18.309Z,97.14
2022-11-15T08:11:05.908Z,96.81
2022-11-15T08:13:53.396Z,96.57
2022-11-15T08:16:40.388Z,96.84
2022-11-15T08:19:27.670Z,96.88
2022-11-15T08:22:14.799Z,96.77
2022-11-15T08:25:01.861Z,96.72
2022-11-15T08:27:48.911Z,96.77
2022-11-15T08:30:39.473Z,96.70
2022-11-15T08:33:26.800Z,96.89
2022-11-15T08:36:18.750Z,96.49
2022-11-15T08:39:06.759Z,96.77
2022-11-15T08:41:53.944Z,97.30
2022-11-15T08:44:40.872Z,97.09
2022-11-15T08:47:28.499Z,97.22
2022-11-15T08:50:15.397Z,97.03
2022-11-15T08:53:10.316Z,97.16
2022-11-15T08:55:57.481Z,97.32
2022-11-15T08:58:44.677Z,97.09
2022-11-15T09:01:31.874Z,97.03
2022-11-15T09:04:18.924Z,97.17
2022-11-15T09:07:05.974Z,97.32
2022-11-15T09:09:53.068Z,97.28
2022-11-15T09:12:40.098Z,97.17
2022-11-15T09:15:27.355Z,97.38
2022-11-15T09:18:14.486Z,97.44
2022-11-15T09:21:02.211Z,97.42
2022-11-15T09:23:53.693Z,97.47
2022-11-15T09:26:41.349Z,97.68
2022-11-15T09:29:28.566Z,98.00
2022-11-15T09:32:15.850Z,97.85
2022-11-15T09:35:02.946Z,97.64
2022-11-15T09:37:54.996Z,97.73
2022-11-15T09:40:43.546Z,97.84
2022-11-15T09:44:02.948Z,97.92
2022-11-15T09:47:03.251Z,98.03
2022-11-15T09:50:01.865Z,97.90
2022-11-15T09:52:38.559Z,98.00
2022-11-15T09:55:10.736Z,98.06
2022-11-15T09:57:56.237Z,97.91
2022-11-15T10:00:52.728Z,97.92
2022-11-15T10:03:27.399Z,98.03
2022-11-15T10:06:01.156Z,98.08
2022-11-15T10:08:52.578Z,98.36
2022-11-15T10:11:37.429Z,98.17
2022-11-15T10:14:13.598Z,98.17
2022-11-15T10:16:59.449Z,98.36
2022-11-15T10:19:55.557Z,98.23
2022-11-15T10:22:27.338Z,98.23
2022-11-15T10:25:11.128Z,98.31
2022-11-15T10:27:45.053Z,98.13
2022-11-15T10:30:18.886Z,98.39
2022-11-15T10:32:49.057Z,98.10
2022-11-15T10:35:28.119Z,98.29
2022-11-15T10:38:16.364Z,98.16
2022-11-15T10:40:46.659Z,98.38
2022-11-15T10:43:20.813Z,98.18
2022-11-15T10:45:50.472Z,98.55
2022-11-15T10:48:24.572Z,98.56
2022-11-15T10:50:55.731Z,98.73
2022-11-15T10:53:40.271Z,98.42
2022-11-15T10:56:13.803Z,98.58
2022-11-15T10:58:46.025Z,98.32
2022-11-15T11:01:20.936Z,98.53
2022-11-15T11:04:06.593Z,98.59
2022-11-15T11:06:58.428Z,98.67
2022-11-15T11:09:37.463Z,99.02
2022-11-15T11:12:11.860Z,98.83
2022-11-15T11:14:41.714Z,98.57
2022-11-15T11:17:32.807Z,98.77
2022-11-15T11:20:19.175Z,98.68
2022-11-15T11:23:23.502Z,98.18
2022-11-15T11:26:22.591Z,97.86
2022-11-15T11:28:56.565Z,98.39
2022-11-15T11:31:56.892Z,97.78
2022-11-15T11:34:45.154Z,97.94
2022-11-15T11:37:25.557Z,98.02
2022-11-15T11:40:12.855Z,98.29
2022-11-15T11:43:00.973Z,98.07
2022-11-15T11:46:08.123Z,97.98
2022-11-15T11:48:50.443Z,97.95
2022-11-15T11:51:44.297Z,98.19
2022-11-15T11:54:37.563Z,98.05
2022-11-15T11:57:14.642Z,98.13
2022-11-15T11:59:55.439Z,98.49
2022-11-15T12:02:56.403Z,98.18
2022-11-15T12:05:32.652Z,98.14
2022-11-15T12:08:24.409Z,98.26
2022-11-15T12:11:02.699Z,98.39
2022-11-15T12:13:36.390Z,98.47
2022-11-15T12:16:15.019Z,98.26
2022-11-15T12:18:49.051Z,98.19
2022-11-15T12:21:28.673Z,98.51
2022-11-15T12:24:13.595Z,98.07
2022-11-15T12:27:08.131Z,98.16
2022-11-15T12:29:45.570Z,98.17
2022-11-15T12:32:28.925Z,97.85
2022-11-15T12:34:58.596Z,98.25
2022-11-15T12:37:39.549Z,98.32
2022-11-15T12:40:29.432Z,98.13
2022-11-15T12:43:14.851Z,97.98
2022-11-15T12:45:48.366Z,97.99
2022-11-15T12:48:18.861Z,98.07
2022-11-15T12:50:55.254Z,98.09
2022-11-15T12:53:26.744Z,97.70
2022-11-15T12:56:13.732Z,97.94
2022-11-15T12:58:45.376Z,97.98
2022-11-15T13:01:33.287Z,98.12
2022-11-15T13:04:16.938Z,98.22
2022-11-15T13:06:48.524Z,98.11
2022-11-15T13:09:35.818Z,98.25
2022-11-15T13:12:23.468Z,98.48
2022-11-15T13:14:54.865Z,98.18
2022-11-15T13:17:32.425Z,98.27
2022-11-15T13:20:16.039Z,98.09
2022-11-15T13:23:03.681Z,98.52
2022-11-15T13:25:38.723Z,98.39
2022-11-15T13:28:22.582Z,98.41
2022-11-15T13:30:56.758Z,98.24
2022-11-15T13:33:38.415Z,98.52
2022-11-15T13:36:17.317Z,98.71
2022-11-15T13:38:46.295Z,98.51
2022-11-15T13:41:25.040Z,98.26
2022-11-15T13:43:55.264Z,98.53
2022-11-15T13:46:31.515Z,98.40
2022-11-15T13:49:10.540Z,98.67
2022-11-15T13:51:44.928Z,98.45
2022-11-15T13:54:16.533Z,98.70
2022-11-15T13:56:50.479Z,98.34
2022-11-15T13:59:46.288Z,98.51
2022-11-15T14:02:19.053Z,98.46
2022-11-15T14:04:58.325Z,98.52
2022-11-15T14:07:30.498Z,98.41
2022-11-15T14:09:59.778Z,98.31
2022-11-15T14:12:36.988Z,98.37
2022-11-15T14:15:34.952Z,98.39
2022-11-15T14:18:04.478Z,98.14
2022-11-15T14:20:39.985Z,98.38
2022-11-15T14:23:29.224Z,98.32
2022-11-15T14:26:01.576Z,97.48
2022-11-15T14:28:39.727Z,97.75
2022-11-15T14:31:14.884Z,97.97
2022-11-15T14:33:43.679Z,97.51
2022-11-15T14:36:16.481Z,97.82
2022-11-15T14:38:45.861Z,97.74
2022-11-15T14:41:20.180Z,97.48
2022-11-15T14:43:49.138Z,97.66
2022-11-15T14:46:17.839Z,97.59
2022-11-15T14:48:46.659Z,97.61
2022-11-15T14:51:18.359Z,97.65
2022-11-15T14:57:26.501Z,97.81
2022-11-15T14:59:55.679Z,97.92
2022-11-15T15:03:01.937Z,97.72
2022-11-15T15:05:44.002Z,97.50
2022-11-15T15:08:13.542Z,97.88
2022-11-15T15:10:47.450Z,97.63
2022-11-15T15:13:26.457Z,97.63
2022-11-15T15:15:55.371Z,97.52
2022-11-15T15:18:24.504Z,97.55
2022-11-15T15:21:04.320Z,97.61
2022-11-15T15:23:33.242Z,97.43
2022-11-15T15:26:02.054Z,97.58
2022-11-15T15:28:34.773Z,97.82
2022-11-15T15:31:04.344Z,97.24
2022-11-15T15:33:33.769Z,97.55
2022-11-15T15:36:02.577Z,97.51
2022-11-15T15:38:31.734Z,97.43
2022-11-15T15:41:03.649Z,97.80
2022-11-15T15:43:32.513Z,97.63
2022-11-15T15:46:01.353Z,97.89
2022-11-15T15:48:30.672Z,97.44
2022-11-15T15:51:00.001Z,97.68
2022-11-15T15:53:29.039Z,97.57
2022-11-15T15:56:00.939Z,97.83
2022-11-15T15:58:29.841Z,97.47
2022-11-15T16:00:58.660Z,97.23
2022-11-15T16:03:29.232Z,97.77
2022-11-15T16:05:57.879Z,97.53
2022-11-15T16:08:37.909Z,97.36
2022-11-15T16:11:16.604Z,97.43
2022-11-15T16:13:45.301Z,97.47
2022-11-15T16:16:15.539Z,96.97
2022-11-15T16:18:44.259Z,96.98
2022-11-15T16:21:13.652Z,96.49
2022-11-15T16:23:42.298Z,96.53
2022-11-15T16:26:31.815Z,96.56
2022-11-15T16:29:00.340Z,96.67
2022-11-15T16:31:28.957Z,96.48
2022-11-15T16:33:57.697Z,96.17
2022-11-15T16:36:30.818Z,96.47
2022-11-15T16:39:00.617Z,96.34
2022-11-15T16:41:29.059Z,96.31
2022-11-15T16:43:57.941Z,95.96
2022-11-15T16:46:29.471Z,96.06
2022-11-15T16:48:58.313Z,96.10
2022-11-15T16:51:27.041Z,95.73
2022-11-15T16:53:55.794Z,96.10
2022-11-15T16:56:31.937Z,95.71
2022-11-15T16:59:02.574Z,95.76
2022-11-15T17:01:51.220Z,95.70
2022-11-15T17:04:23.407Z,95.21
2022-11-15T17:06:51.974Z,95.07
2022-11-15T17:09:26.541Z,94.80
2022-11-15T17:11:55.445Z,94.96
2022-11-15T17:14:23.959Z,94.78
2022-11-15T17:16:54.302Z,94.71
2022-11-15T17:19:23.227Z,94.27
2022-11-15T17:21:52.589Z,93.31
2022-11-15T17:24:24.272Z,93.51
2022-11-15T17:26:53.318Z,93.27
2022-11-15T17:29:22.146Z,92.96
2022-11-15T17:31:51.176Z,93.11
2022-11-15T17:34:19.918Z,93.51
2022-11-15T17:36:49.388Z,93.58
2022-11-15T17:39:20.330Z,92.97
2022-11-15T17:41:48.920Z,92.82
2022-11-15T17:44:17.605Z,92.92
2022-11-15T17:46:46.414Z,92.35
2022-11-15T17:49:15.069Z,92.54
2022-11-15T17:51:48.731Z,92.68
2022-11-15T17:54:18.211Z,92.59
2022-11-15T17:56:46.708Z,92.77
2022-11-15T17:59:20.166Z,91.87
2022-11-15T18:01:50.151Z,91.93
2022-11-15T18:04:18.786Z,92.05
2022-11-15T18:06:47.925Z,92.67
2022-11-15T18:09:16.406Z,92.13
2022-11-15T18:11:47.295Z,92.49
2022-11-15T18:14:16.729Z,92.11
2022-11-15T18:16:45.397Z,92.15
2022-11-15T18:19:14.520Z,91.79
2022-11-15T18:21:57.417Z,91.79
2022-11-15T18:24:35.551Z,91.78
2022-11-15T18:27:06.692Z,91.98
2022-11-15T18:29:38.354Z,92.03
2022-11-15T18:32:12.882Z,91.75
2022-11-15T18:34:41.737Z,92.17
2022-11-15T18:37:10.657Z,92.00
2022-11-15T18:39:39.298Z,92.18
2022-11-15T18:42:07.986Z,92.25
2022-11-15T18:44:36.634Z,92.27
2022-11-15T18:47:05.310Z,91.90
2022-11-15T18:49:34.168Z,92.29
2022-11-15T18:52:02.904Z,92.07
2022-11-15T18:54:32.015Z,91.63
2022-11-15T18:57:00.799Z,92.13
2022-11-15T18:59:30.579Z,92.54
2022-11-15T19:01:59.424Z,91.87
2022-11-15T19:04:28.422Z,91.82
2022-11-15T19:06:56.886Z,91.90
2022-11-15T19:09:32.644Z,91.93
2022-11-15T19:12:01.911Z,91.81
2022-11-15T19:14:30.850Z,92.15
2022-11-15T19:16:59.350Z,91.94
2022-11-15T19:19:29.252Z,91.63
2022-11-15T19:21:58.381Z,92.07
2022-11-15T19:24:28.043Z,92.05
2022-11-15T19:26:56.983Z,91.54
2022-11-15T19:29:25.458Z,92.39
2022-11-15T19:31:54.204Z,91.95
2022-11-15T19:34:22.888Z,92.04
2022-11-15T19:36:52.027Z,91.82
2022-11-15T19:39:20.716Z,91.57
2022-11-15T19:41:50.611Z,91.46
2022-11-15T19:44:20.108Z,91.43
2022-11-15T19:46:48.585Z,90.92
2022-11-15T19:49:17.285Z,91.74
2022-11-15T19:51:47.783Z,91.57
2022-11-15T19:54:17.894Z,91.71
2022-11-15T19:56:46.662Z,91.74
2022-11-15T19:59:15.949Z,91.11
2022-11-15T20:01:44.607Z,91.32
2022-11-15T20:04:13.327Z,91.47
2022-11-15T20:06:43.737Z,91.37
2022-11-15T20:09:14.549Z,90.96
2022-11-15T20:11:43.255Z,91.17
2022-11-15T20:14:13.615Z,90.77
2022-11-15T20:16:42.481Z,91.30
2022-11-15T20:19:12.938Z,90.70
2022-11-15T20:21:41.475Z,90.52
2022-11-15T20:24:10.888Z,90.22
2022-11-15T20:26:40.084Z,90.34
2022-11-15T20:29:10.670Z,90.26
2022-11-15T20:31:39.393Z,89.16
2022-11-15T20:34:07.976Z,89.24
2022-11-15T20:36:36.549Z,89.63
2022-11-15T20:39:05.050Z,89.21
2022-11-15T20:41:33.889Z,89.81
2022-11-15T20:44:03.583Z,89.67
2022-11-15T20:46:35.212Z,89.77
2022-11-15T20:49:03.711Z,89.53
2022-11-15T20:51:32.253Z,89.74
2022-11-15T20:54:00.741Z,89.86
2022-11-15T20:56:29.356Z,89.81
2022-11-15T20:58:57.827Z,90.10
2022-11-15T21:01:26.765Z,89.94
2022-11-15T21:03:56.595Z,90.54
2022-11-15T21:06:27.150Z,90.67
2022-11-15T21:09:15.227Z,90.57
2022-11-15T21:12:02.066Z,90.45
2022-11-15T21:14:31.011Z,90.19
2022-11-15T21:17:00.300Z,90.58
2022-11-15T21:19:34.039Z,90.39
2022-11-15T21:22:06.390Z,90.50
2022-11-15T21:24:34.931Z,91.01
2022-11-15T21:27:03.647Z,90.26
2022-11-15T21:29:38.739Z,90.39
2022-11-15T21:32:09.842Z,89.67
2022-11-15T21:34:38.901Z,90.39
2022-11-15T21:37:08.173Z,90.37
2022-11-15T21:39:36.784Z,89.99
2022-11-15T21:42:06.312Z,90.28
2022-11-15T21:44:34.723Z,89.93
2022-11-15T21:47:03.469Z,90.04
2022-11-15T21:49:32.151Z,89.74
2022-11-15T21:52:00.638Z,89.22
2022-11-15T21:54:29.268Z,89.54
2022-11-15T21:56:57.722Z,89.43
2022-11-15T21:59:26.360Z,89.57
2022-11-15T22:02:13.070Z,89.82
2022-11-15T22:04:41.609Z,88.85
2022-11-15T22:07:10.097Z,89.31
2022-11-15T22:09:38.949Z,89.32
2022-11-15T22:12:07.631Z,89.24
2022-11-15T22:14:36.361Z,89.28
2022-11-15T22:17:04.979Z,89.72
2022-11-15T22:19:33.763Z,89.33
2022-11-15T22:22:02.289Z,89.47
2022-11-15T22:24:31.540Z,89.39
2022-11-15T22:27:00.612Z,89.29
2022-11-15T22:29:29.295Z,89.03
2022-11-15T22:31:57.985Z,89.23
2022-11-15T22:34:26.482Z,88.98
2022-11-15T22:37:21.415Z,88.78
2022-11-15T22:39:44.177Z,88.53
2022-11-15T22:42:13.898Z,88.88
2022-11-15T22:44:42.732Z,89.50
2022-11-15T22:47:11.490Z,88.83
2022-11-15T22:49:40.296Z,88.65
2022-11-15T22:52:09.758Z,88.62
2022-11-15T22:54:38.909Z,88.37
2022-11-15T22:57:07.596Z,88.92
2022-11-15T22:59:38.118Z,88.75
2022-11-15T23:02:06.920Z,88.61
2022-11-15T23:04:35.510Z,88.61
2022-11-15T23:07:04.419Z,88.61
2022-11-15T23:09:36.006Z,88.74
2022-11-15T23:12:23.698Z,89.12
2022-11-15T23:14:52.378Z,88.75
2022-11-15T23:17:21.127Z,88.92
2022-11-15T23:19:50.021Z,88.85
2022-11-15T23:22:37.189Z,88.29
2022-11-15T23:25:06.417Z,89.17
2022-11-15T23:27:35.258Z,89.27
2022-11-15T23:30:22.430Z,89.00
2022-11-15T23:33:09.154Z,89.10
2022-11-15T23:35:38.141Z,89.18
2022-11-15T23:38:06.859Z,88.91
2022-11-15T23:40:35.766Z,88.56
2022-11-15T23:43:04.460Z,88.60
2022-11-15T23:45:33.341Z,88.59
2022-11-15T23:48:02.221Z,88.90
2022-11-15T23:50:33.274Z,88.64
2022-11-15T23:53:02.459Z,88.74
2022-11-15T23:55:31.450Z,88.94
2022-11-15T23:58:00.376Z,88.75
